sensor_id;sensor_type;location;lat;lon;timestamp;pressure;altitude;pressure_sealevel;temperature;humidity
73860;BME280;62197;51.632;13.700;2022-09-03T00:07:57;100599.25;;;12.38;67.99
73860;BME280;62197;51.632;13.700;2022-09-03T00:10:45;100608.22;;;12.28;69.37
73860;BME280;62197;51.632;13.700;2022-09-03T00:13:19;100602.50;;;12.18;69.31
73860;BME280;62197;51.632;13.700;2022-09-03T00:15:46;100604.19;;;12.19;69.14
73860;BME280;62197;51.632;13.700;2022-09-03T00:18:16;100600.19;;;12.27;68.75
73860;BME280;62197;51.632;13.700;2022-09-03T00:20:49;100595.28;;;12.17;68.32
73860;BME280;62197;51.632;13.700;2022-09-03T00:23:21;100595.28;;;12.17;69.19
73860;BME280;62197;51.632;13.700;2022-09-03T00:25:56;100584.72;;;12.14;69.86
73860;BME280;62197;51.632;13.700;2022-09-03T00:28:37;100600.84;;;12.17;69.92
73860;BME280;62197;51.632;13.700;2022-09-03T00:31:10;100601.31;;;12.14;69.84
73860;BME280;62197;51.632;13.700;2022-09-03T00:33:43;100590.25;;;12.14;69.93
73860;BME280;62197;51.632;13.700;2022-09-03T00:36:23;100598.53;;;12.14;69.46
73860;BME280;62197;51.632;13.700;2022-09-03T00:38:50;100592.34;;;12.07;69.84
73860;BME280;62197;51.632;13.700;2022-09-03T00:41:26;100586.69;;;12.02;69.95
73860;BME280;62197;51.632;13.700;2022-09-03T00:47:12;100588.25;;;12.10;71.54
73860;BME280;62197;51.632;13.700;2022-09-03T00:53:09;100581.59;;;11.94;70.25
73860;BME280;62197;51.632;13.700;2022-09-03T00:58:41;100567.94;;;11.76;71.43
73860;BME280;62197;51.632;13.700;2022-09-03T01:05:24;100576.94;;;11.83;71.00
73860;BME280;62197;51.632;13.700;2022-09-03T01:07:43;100578.09;;;11.87;71.79
73860;BME280;62197;51.632;13.700;2022-09-03T01:10:29;100569.13;;;11.80;71.28
73860;BME280;62197;51.632;13.700;2022-09-03T01:13:11;100573.09;;;11.84;71.52
73860;BME280;62197;51.632;13.700;2022-09-03T01:15:44;100575.84;;;11.84;71.74
73860;BME280;62197;51.632;13.700;2022-09-03T01:18:41;100577.53;;;11.85;71.82
73860;BME280;62197;51.632;13.700;2022-09-03T01:27:21;100568.53;;;11.78;73.35
73860;BME280;62197;51.632;13.700;2022-09-03T01:30:02;100566.75;;;11.72;72.92
73860;BME280;62197;51.632;13.700;2022-09-03T01:32:50;100574.22;;;11.71;73.44
73860;BME280;62197;51.632;13.700;2022-09-03T01:38:03;100571.44;;;11.71;74.19
73860;BME280;62197;51.632;13.700;2022-09-03T01:44:08;100567.38;;;11.91;74.15
73860;BME280;62197;51.632;13.700;2022-09-03T01:46:39;100566.03;;;11.76;73.97
73860;BME280;62197;51.632;13.700;2022-09-03T01:49:16;100564.59;;;11.74;73.70
73860;BME280;62197;51.632;13.700;2022-09-03T01:51:50;100573.41;;;11.71;74.18
73860;BME280;62197;51.632;13.700;2022-09-03T01:54:40;100568.34;;;11.68;74.00
73860;BME280;62197;51.632;13.700;2022-09-03T02:00:13;100558.22;;;11.62;74.94
73860;BME280;62197;51.632;13.700;2022-09-03T02:02:41;100554.25;;;11.69;74.61
73860;BME280;62197;51.632;13.700;2022-09-03T02:07:44;100565.56;;;11.68;74.35
73860;BME280;62197;51.632;13.700;2022-09-03T02:10:14;100577.22;;;11.70;74.28
73860;BME280;62197;51.632;13.700;2022-09-03T02:12:44;100561.22;;;11.72;74.49
73860;BME280;62197;51.632;13.700;2022-09-03T02:15:13;100580.59;;;11.72;74.18
73860;BME280;62197;51.632;13.700;2022-09-03T02:17:40;100572.66;;;11.64;74.38
73860;BME280;62197;51.632;13.700;2022-09-03T02:20:09;100572.19;;;11.67;74.36
73860;BME280;62197;51.632;13.700;2022-09-03T02:22:36;100575.31;;;11.59;75.27
73860;BME280;62197;51.632;13.700;2022-09-03T02:25:03;100573.16;;;11.61;75.55
73860;BME280;62197;51.632;13.700;2022-09-03T02:27:29;100578.34;;;11.57;74.08
73860;BME280;62197;51.632;13.700;2022-09-03T02:29:55;100576.03;;;11.66;76.45
73860;BME280;62197;51.632;13.700;2022-09-03T02:32:20;100564.25;;;11.59;75.72
73860;BME280;62197;51.632;13.700;2022-09-03T02:34:45;100578.56;;;11.56;74.67
73860;BME280;62197;51.632;13.700;2022-09-03T02:37:15;100571.63;;;11.53;75.85
73860;BME280;62197;51.632;13.700;2022-09-03T02:39:41;100564.06;;;11.49;75.30
73860;BME280;62197;51.632;13.700;2022-09-03T02:42:08;100565.25;;;11.53;75.66
73860;BME280;62197;51.632;13.700;2022-09-03T02:44:36;100559.00;;;11.57;75.34
73860;BME280;62197;51.632;13.700;2022-09-03T02:47:05;100563.06;;;11.55;75.40
73860;BME280;62197;51.632;13.700;2022-09-03T02:49:32;100554.19;;;11.53;75.07
73860;BME280;62197;51.632;13.700;2022-09-03T02:51:59;100557.38;;;11.61;75.07
73860;BME280;62197;51.632;13.700;2022-09-03T02:54:26;100568.69;;;11.60;75.47
73860;BME280;62197;51.632;13.700;2022-09-03T02:56:52;100558.03;;;11.52;74.89
73860;BME280;62197;51.632;13.700;2022-09-03T02:59:18;100565.84;;;11.55;76.07
73860;BME280;62197;51.632;13.700;2022-09-03T03:01:43;100575.09;;;11.49;76.04
73860;BME280;62197;51.632;13.700;2022-09-03T03:04:08;100567.06;;;11.47;75.47
73860;BME280;62197;51.632;13.700;2022-09-03T03:06:34;100573.31;;;11.43;76.60
73860;BME280;62197;51.632;13.700;2022-09-03T03:08:59;100572.94;;;11.51;76.52
73860;BME280;62197;51.632;13.700;2022-09-03T03:11:25;100570.84;;;11.30;76.88
73860;BME280;62197;51.632;13.700;2022-09-03T03:13:51;100573.97;;;11.22;77.06
73860;BME280;62197;51.632;13.700;2022-09-03T03:16:16;100574.66;;;11.29;77.36
73860;BME280;62197;51.632;13.700;2022-09-03T03:18:42;100583.69;;;11.36;79.53
73860;BME280;62197;51.632;13.700;2022-09-03T03:21:12;100575.03;;;11.21;77.22
73860;BME280;62197;51.632;13.700;2022-09-03T03:23:38;100587.88;;;11.27;78.55
73860;BME280;62197;51.632;13.700;2022-09-03T03:26:08;100586.81;;;11.28;78.90
73860;BME280;62197;51.632;13.700;2022-09-03T03:28:34;100580.56;;;11.21;77.44
73860;BME280;62197;51.632;13.700;2022-09-03T03:31:07;100573.84;;;11.28;77.93
73860;BME280;62197;51.632;13.700;2022-09-03T03:33:33;100576.97;;;11.32;78.47
73860;BME280;62197;51.632;13.700;2022-09-03T03:36:03;100577.03;;;11.48;77.58
73860;BME280;62197;51.632;13.700;2022-09-03T03:38:29;100576.63;;;11.68;76.70
73860;BME280;62197;51.632;13.700;2022-09-03T03:40:54;100566.44;;;11.57;76.93
73860;BME280;62197;51.632;13.700;2022-09-03T03:43:19;100571.97;;;11.57;77.04
73860;BME280;62197;51.632;13.700;2022-09-03T03:45:55;100568.34;;;11.56;77.41
73860;BME280;62197;51.632;13.700;2022-09-03T03:48:20;100561.75;;;11.57;76.02
73860;BME280;62197;51.632;13.700;2022-09-03T03:50:46;100569.56;;;11.49;76.32
73860;BME280;62197;51.632;13.700;2022-09-03T03:53:11;100582.25;;;11.73;76.45
73860;BME280;62197;51.632;13.700;2022-09-03T03:55:36;100576.13;;;11.59;76.26
73860;BME280;62197;51.632;13.700;2022-09-03T03:58:03;100570.13;;;11.62;74.99
73860;BME280;62197;51.632;13.700;2022-09-03T04:00:28;100573.03;;;11.56;76.64
73860;BME280;62197;51.632;13.700;2022-09-03T04:02:53;100576.72;;;11.61;75.71
73860;BME280;62197;51.632;13.700;2022-09-03T04:05:19;100570.78;;;11.53;76.19
73860;BME280;62197;51.632;13.700;2022-09-03T04:07:44;100575.31;;;11.59;77.45
73860;BME280;62197;51.632;13.700;2022-09-03T04:10:09;100571.75;;;11.47;76.55
73860;BME280;62197;51.632;13.700;2022-09-03T04:12:35;100566.81;;;11.49;76.66
73860;BME280;62197;51.632;13.700;2022-09-03T04:15:00;100567.78;;;11.43;76.47
73860;BME280;62197;51.632;13.700;2022-09-03T04:17:26;100579.31;;;11.51;78.07
73860;BME280;62197;51.632;13.700;2022-09-03T04:19:52;100563.91;;;11.55;77.13
73860;BME280;62197;51.632;13.700;2022-09-03T04:22:17;100555.97;;;11.70;76.55
73860;BME280;62197;51.632;13.700;2022-09-03T04:24:43;100566.56;;;11.50;77.25
73860;BME280;62197;51.632;13.700;2022-09-03T04:27:09;100564.34;;;11.36;78.92
73860;BME280;62197;51.632;13.700;2022-09-03T04:29:34;100569.63;;;11.26;76.75
73860;BME280;62197;51.632;13.700;2022-09-03T04:31:59;100568.22;;;11.12;77.68
73860;BME280;62197;51.632;13.700;2022-09-03T04:34:43;100564.16;;;11.03;78.51
73860;BME280;62197;51.632;13.700;2022-09-03T04:37:08;100560.44;;;11.09;77.88
73860;BME280;62197;51.632;13.700;2022-09-03T04:39:34;100570.28;;;11.05;78.94
73860;BME280;62197;51.632;13.700;2022-09-03T04:42:00;100574.81;;;11.22;80.23
73860;BME280;62197;51.632;13.700;2022-09-03T04:44:25;100570.34;;;11.33;78.57
73860;BME280;62197;51.632;13.700;2022-09-03T04:46:50;100577.09;;;11.14;78.78
73860;BME280;62197;51.632;13.700;2022-09-03T04:49:17;100571.72;;;10.96;78.55
73860;BME280;62197;51.632;13.700;2022-09-03T04:51:42;100572.56;;;10.96;79.24
73860;BME280;62197;51.632;13.700;2022-09-03T04:54:08;100575.44;;;11.13;80.22
73860;BME280;62197;51.632;13.700;2022-09-03T04:56:34;100574.34;;;11.02;78.30
73860;BME280;62197;51.632;13.700;2022-09-03T04:59:05;100572.91;;;11.00;78.45
73860;BME280;62197;51.632;13.700;2022-09-03T05:01:32;100584.94;;;11.17;78.55
73860;BME280;62197;51.632;13.700;2022-09-03T05:03:59;100575.06;;;10.98;79.51
73860;BME280;62197;51.632;13.700;2022-09-03T05:06:26;100573.91;;;11.05;78.58
73860;BME280;62197;51.632;13.700;2022-09-03T05:08:52;100575.91;;;11.10;78.50
73860;BME280;62197;51.632;13.700;2022-09-03T05:11:18;100579.19;;;10.95;78.81
73860;BME280;62197;51.632;13.700;2022-09-03T05:13:48;100579.28;;;10.88;79.60
73860;BME280;62197;51.632;13.700;2022-09-03T05:16:14;100581.19;;;10.88;79.19
73860;BME280;62197;51.632;13.700;2022-09-03T05:18:39;100583.38;;;10.74;79.14
73860;BME280;62197;51.632;13.700;2022-09-03T05:21:09;100574.13;;;10.80;79.60
73860;BME280;62197;51.632;13.700;2022-09-03T05:23:36;100581.69;;;10.85;79.36
73860;BME280;62197;51.632;13.700;2022-09-03T05:26:04;100591.53;;;10.93;80.67
73860;BME280;62197;51.632;13.700;2022-09-03T05:28:33;100578.22;;;10.78;79.89
73860;BME280;62197;51.632;13.700;2022-09-03T05:31:02;100590.44;;;10.82;80.40
73860;BME280;62197;51.632;13.700;2022-09-03T05:33:27;100591.78;;;10.79;80.98
73860;BME280;62197;51.632;13.700;2022-09-03T05:36:03;100591.28;;;10.82;79.40
73860;BME280;62197;51.632;13.700;2022-09-03T05:38:29;100593.56;;;11.09;80.82
73860;BME280;62197;51.632;13.700;2022-09-03T05:41:02;100585.63;;;11.12;78.35
73860;BME280;62197;51.632;13.700;2022-09-03T05:43:28;100581.91;;;11.18;78.52
73860;BME280;62197;51.632;13.700;2022-09-03T05:46:02;100587.75;;;11.33;77.65
73860;BME280;62197;51.632;13.700;2022-09-03T05:48:28;100583.31;;;11.44;78.53
73860;BME280;62197;51.632;13.700;2022-09-03T05:51:04;100578.47;;;11.51;76.35
73860;BME280;62197;51.632;13.700;2022-09-03T05:53:32;100579.47;;;11.73;76.91
73860;BME280;62197;51.632;13.700;2022-09-03T05:56:04;100581.25;;;11.79;75.76
73860;BME280;62197;51.632;13.700;2022-09-03T05:58:30;100591.94;;;11.87;76.20
73860;BME280;62197;51.632;13.700;2022-09-03T06:00:56;100580.56;;;12.00;75.23
73860;BME280;62197;51.632;13.700;2022-09-03T06:03:21;100590.94;;;12.21;75.14
73860;BME280;62197;51.632;13.700;2022-09-03T06:05:50;100593.78;;;12.26;74.22
73860;BME280;62197;51.632;13.700;2022-09-03T06:08:15;100590.44;;;12.41;73.67
73860;BME280;62197;51.632;13.700;2022-09-03T06:10:41;100578.88;;;12.44;73.03
73860;BME280;62197;51.632;13.700;2022-09-03T06:13:06;100593.72;;;12.54;72.93
73860;BME280;62197;51.632;13.700;2022-09-03T06:15:31;100582.81;;;12.64;72.64
73860;BME280;62197;51.632;13.700;2022-09-03T06:17:57;100586.94;;;12.79;73.03
73860;BME280;62197;51.632;13.700;2022-09-03T06:20:22;100574.84;;;12.85;71.79
73860;BME280;62197;51.632;13.700;2022-09-03T06:22:51;100583.09;;;13.01;71.04
73860;BME280;62197;51.632;13.700;2022-09-03T06:25:17;100577.50;;;13.13;70.89
73860;BME280;62197;51.632;13.700;2022-09-03T06:27:43;100576.75;;;13.39;69.62
73860;BME280;62197;51.632;13.700;2022-09-03T06:30:10;100575.47;;;13.68;68.57
73860;BME280;62197;51.632;13.700;2022-09-03T06:32:43;100578.31;;;14.00;67.80
73860;BME280;62197;51.632;13.700;2022-09-03T06:35:08;100583.41;;;14.34;67.18
73860;BME280;62197;51.632;13.700;2022-09-03T06:37:38;100594.56;;;14.39;65.97
73860;BME280;62197;51.632;13.700;2022-09-03T06:40:04;100585.81;;;14.58;65.54
73860;BME280;62197;51.632;13.700;2022-09-03T06:42:29;100587.06;;;14.72;65.30
73860;BME280;62197;51.632;13.700;2022-09-03T06:44:55;100578.16;;;14.70;64.65
73860;BME280;62197;51.632;13.700;2022-09-03T06:47:21;100575.16;;;14.76;65.37
73860;BME280;62197;51.632;13.700;2022-09-03T06:49:46;100574.53;;;14.69;65.70
73860;BME280;62197;51.632;13.700;2022-09-03T06:52:12;100582.94;;;14.79;65.31
73860;BME280;62197;51.632;13.700;2022-09-03T06:54:37;100590.19;;;14.80;65.08
73860;BME280;62197;51.632;13.700;2022-09-03T06:57:04;100597.00;;;14.99;63.77
73860;BME280;62197;51.632;13.700;2022-09-03T06:59:30;100595.13;;;15.10;64.19
73860;BME280;62197;51.632;13.700;2022-09-03T07:01:56;100591.84;;;15.18;64.06
73860;BME280;62197;51.632;13.700;2022-09-03T07:04:23;100589.59;;;15.15;63.94
73860;BME280;62197;51.632;13.700;2022-09-03T07:06:49;100585.25;;;15.29;63.96
73860;BME280;62197;51.632;13.700;2022-09-03T07:09:14;100591.72;;;14.98;64.35
73860;BME280;62197;51.632;13.700;2022-09-03T07:11:42;100595.97;;;15.10;67.71
73860;BME280;62197;51.632;13.700;2022-09-03T07:14:11;100587.53;;;14.95;65.74
73860;BME280;62197;51.632;13.700;2022-09-03T07:16:36;100590.69;;;15.09;64.78
73860;BME280;62197;51.632;13.700;2022-09-03T07:19:03;100583.03;;;15.31;63.85
73860;BME280;62197;51.632;13.700;2022-09-03T07:21:30;100575.31;;;15.43;63.24
73860;BME280;62197;51.632;13.700;2022-09-03T07:23:57;100577.06;;;15.59;62.75
73860;BME280;62197;51.632;13.700;2022-09-03T07:26:24;100578.78;;;15.70;62.33
73860;BME280;62197;51.632;13.700;2022-09-03T07:28:51;100581.59;;;15.80;62.21
73860;BME280;62197;51.632;13.700;2022-09-03T07:31:24;100585.84;;;15.98;61.07
73860;BME280;62197;51.632;13.700;2022-09-03T07:33:59;100578.63;;;16.07;60.39
73860;BME280;62197;51.632;13.700;2022-09-03T07:36:26;100585.34;;;16.31;61.16
73860;BME280;62197;51.632;13.700;2022-09-03T07:38:57;100571.13;;;16.22;59.68
73860;BME280;62197;51.632;13.700;2022-09-03T07:41:24;100576.72;;;16.33;58.87
73860;BME280;62197;51.632;13.700;2022-09-03T07:43:50;100570.34;;;16.47;59.48
73860;BME280;62197;51.632;13.700;2022-09-03T07:46:21;100582.91;;;16.60;59.31
73860;BME280;62197;51.632;13.700;2022-09-03T07:48:48;100570.91;;;16.59;58.52
73860;BME280;62197;51.632;13.700;2022-09-03T07:51:15;100575.38;;;16.75;56.67
73860;BME280;62197;51.632;13.700;2022-09-03T07:53:42;100569.19;;;17.03;57.10
73860;BME280;62197;51.632;13.700;2022-09-03T07:56:08;100578.09;;;17.15;55.96
73860;BME280;62197;51.632;13.700;2022-09-03T07:58:35;100576.72;;;17.18;57.01
73860;BME280;62197;51.632;13.700;2022-09-03T08:01:06;100577.56;;;17.19;54.57
73860;BME280;62197;51.632;13.700;2022-09-03T08:03:33;100574.53;;;17.05;55.27
73860;BME280;62197;51.632;13.700;2022-09-03T08:06:01;100563.59;;;17.24;55.68
73860;BME280;62197;51.632;13.700;2022-09-03T08:08:27;100572.16;;;17.57;55.37
73860;BME280;62197;51.632;13.700;2022-09-03T08:10:52;100574.56;;;17.79;54.87
73860;BME280;62197;51.632;13.700;2022-09-03T08:13:18;100560.59;;;17.84;54.32
73860;BME280;62197;51.632;13.700;2022-09-03T08:15:52;100564.88;;;17.66;53.26
73860;BME280;62197;51.632;13.700;2022-09-03T08:18:17;100561.44;;;17.84;53.98
73860;BME280;62197;51.632;13.700;2022-09-03T08:20:42;100565.00;;;18.00;53.94
73860;BME280;62197;51.632;13.700;2022-09-03T08:23:08;100565.34;;;17.88;52.72
73860;BME280;62197;51.632;13.700;2022-09-03T08:25:33;100566.34;;;18.02;53.21
73860;BME280;62197;51.632;13.700;2022-09-03T08:27:58;100560.06;;;18.26;51.96
73860;BME280;62197;51.632;13.700;2022-09-03T08:30:24;100565.38;;;18.27;51.98
73860;BME280;62197;51.632;13.700;2022-09-03T08:32:50;100568.31;;;18.41;51.87
73860;BME280;62197;51.632;13.700;2022-09-03T08:35:16;100557.66;;;18.53;51.53
73860;BME280;62197;51.632;13.700;2022-09-03T08:37:41;100568.81;;;18.58;52.29
73860;BME280;62197;51.632;13.700;2022-09-03T08:40:07;100572.94;;;18.65;52.13
73860;BME280;62197;51.632;13.700;2022-09-03T08:45:24;100561.31;;;18.82;50.91
73860;BME280;62197;51.632;13.700;2022-09-03T08:48:13;100563.38;;;19.00;50.58
73860;BME280;62197;51.632;13.700;2022-09-03T08:50:43;100548.56;;;19.00;50.12
73860;BME280;62197;51.632;13.700;2022-09-03T08:53:22;100552.09;;;19.10;50.00
73860;BME280;62197;51.632;13.700;2022-09-03T08:55:55;100546.50;;;19.10;49.20
73860;BME280;62197;51.632;13.700;2022-09-03T08:58:36;100551.72;;;19.17;51.10
73860;BME280;62197;51.632;13.700;2022-09-03T09:01:28;100562.50;;;19.33;48.61
73860;BME280;62197;51.632;13.700;2022-09-03T09:04:21;100544.88;;;19.56;48.68
73860;BME280;62197;51.632;13.700;2022-09-03T09:06:53;100543.81;;;19.52;48.35
73860;BME280;62197;51.632;13.700;2022-09-03T09:15:42;100526.97;;;19.76;47.11
73860;BME280;62197;51.632;13.700;2022-09-03T09:21:12;100535.09;;;20.15;46.67
73860;BME280;62197;51.632;13.700;2022-09-03T09:23:45;100548.75;;;20.40;45.20
73860;BME280;62197;51.632;13.700;2022-09-03T09:26:13;100529.66;;;20.42;46.28
73860;BME280;62197;51.632;13.700;2022-09-03T09:28:41;100530.78;;;20.41;44.49
73860;BME280;62197;51.632;13.700;2022-09-03T09:31:09;100529.47;;;20.52;45.78
73860;BME280;62197;51.632;13.700;2022-09-03T09:33:39;100523.44;;;20.77;44.78
73860;BME280;62197;51.632;13.700;2022-09-03T09:36:07;100518.03;;;20.67;42.28
73860;BME280;62197;51.632;13.700;2022-09-03T09:38:36;100514.59;;;20.70;42.39
73860;BME280;62197;51.632;13.700;2022-09-03T09:41:09;100515.13;;;20.72;42.33
73860;BME280;62197;51.632;13.700;2022-09-03T09:43:35;100521.16;;;20.79;41.83
73860;BME280;62197;51.632;13.700;2022-09-03T09:46:08;100518.13;;;20.76;41.11
73860;BME280;62197;51.632;13.700;2022-09-03T09:48:43;100522.72;;;20.85;42.22
73860;BME280;62197;51.632;13.700;2022-09-03T09:53:42;100514.94;;;20.82;40.96
73860;BME280;62197;51.632;13.700;2022-09-03T09:56:19;100520.38;;;20.92;40.34
73860;BME280;62197;51.632;13.700;2022-09-03T09:58:45;100511.16;;;20.41;42.34
73860;BME280;62197;51.632;13.700;2022-09-03T10:01:17;100514.06;;;20.36;41.37
73860;BME280;62197;51.632;13.700;2022-09-03T10:03:54;100502.75;;;20.73;41.53
73860;BME280;62197;51.632;13.700;2022-09-03T10:06:25;100514.31;;;21.17;41.32
73860;BME280;62197;51.632;13.700;2022-09-03T10:09:12;100508.16;;;21.70;39.88
73860;BME280;62197;51.632;13.700;2022-09-03T10:11:48;100491.44;;;22.14;39.59
73860;BME280;62197;51.632;13.700;2022-09-03T10:14:23;100495.50;;;22.08;39.29
73860;BME280;62197;51.632;13.700;2022-09-03T10:17:04;100491.19;;;21.75;39.71
73860;BME280;62197;51.632;13.700;2022-09-03T10:19:48;100499.03;;;21.23;40.75
73860;BME280;62197;51.632;13.700;2022-09-03T10:22:42;100493.63;;;21.40;40.44
73860;BME280;62197;51.632;13.700;2022-09-03T10:25:13;100470.22;;;21.45;40.81
73860;BME280;62197;51.632;13.700;2022-09-03T10:27:39;100501.31;;;21.48;40.85
73860;BME280;62197;51.632;13.700;2022-09-03T10:30:05;100483.97;;;21.19;41.62
73860;BME280;62197;51.632;13.700;2022-09-03T10:32:41;100494.66;;;21.44;41.67
73860;BME280;62197;51.632;13.700;2022-09-03T10:35:31;100487.06;;;21.45;41.53
73860;BME280;62197;51.632;13.700;2022-09-03T10:40:39;100471.38;;;21.03;42.45
73860;BME280;62197;51.632;13.700;2022-09-03T10:46:10;100479.13;;;21.61;41.39
73860;BME280;62197;51.632;13.700;2022-09-03T10:51:27;100472.66;;;22.23;40.92
73860;BME280;62197;51.632;13.700;2022-09-03T10:59:54;100461.06;;;24.63;35.86
73860;BME280;62197;51.632;13.700;2022-09-03T11:02:48;100462.03;;;25.68;33.90
73860;BME280;62197;51.632;13.700;2022-09-03T11:05:24;100460.97;;;25.73;32.95
73860;BME280;62197;51.632;13.700;2022-09-03T11:08:00;100449.72;;;26.14;32.55
73860;BME280;62197;51.632;13.700;2022-09-03T11:10:34;100463.16;;;25.97;32.17
73860;BME280;62197;51.632;13.700;2022-09-03T11:13:27;100464.16;;;25.92;32.28
73860;BME280;62197;51.632;13.700;2022-09-03T11:16:00;100455.78;;;26.45;31.89
73860;BME280;62197;51.632;13.700;2022-09-03T11:18:28;100459.28;;;26.63;31.52
73860;BME280;62197;51.632;13.700;2022-09-03T11:20:59;100441.16;;;26.43;31.31
73860;BME280;62197;51.632;13.700;2022-09-03T11:23:32;100442.56;;;26.17;30.46
73860;BME280;62197;51.632;13.700;2022-09-03T11:26:03;100435.50;;;25.81;31.49
73860;BME280;62197;51.632;13.700;2022-09-03T11:33:59;100440.28;;;26.10;31.39
73860;BME280;62197;51.632;13.700;2022-09-03T11:36:36;100433.97;;;26.25;30.73
73860;BME280;62197;51.632;13.700;2022-09-03T11:39:24;100440.91;;;26.36;29.82
73860;BME280;62197;51.632;13.700;2022-09-03T11:42:10;100449.94;;;26.62;30.57
73860;BME280;62197;51.632;13.700;2022-09-03T11:44:37;100440.22;;;26.72;30.02
73860;BME280;62197;51.632;13.700;2022-09-03T11:47:19;100445.31;;;26.91;28.82
73860;BME280;62197;51.632;13.700;2022-09-03T11:49:48;100431.38;;;26.20;29.91
73860;BME280;62197;51.632;13.700;2022-09-03T11:52:28;100433.00;;;26.21;31.00
73860;BME280;62197;51.632;13.700;2022-09-03T11:54:53;100432.28;;;25.62;31.74
73860;BME280;62197;51.632;13.700;2022-09-03T11:57:27;100430.41;;;24.45;33.71
73860;BME280;62197;51.632;13.700;2022-09-03T11:59:53;100439.03;;;25.12;32.83
73860;BME280;62197;51.632;13.700;2022-09-03T12:02:45;100432.88;;;26.38;30.27
73860;BME280;62197;51.632;13.700;2022-09-03T12:05:20;100435.16;;;27.46;28.67
73860;BME280;62197;51.632;13.700;2022-09-03T12:10:40;100425.97;;;26.93;29.37
73860;BME280;62197;51.632;13.700;2022-09-03T12:13:20;100430.91;;;27.52;28.96
73860;BME280;62197;51.632;13.700;2022-09-03T12:15:59;100412.16;;;28.00;28.91
73860;BME280;62197;51.632;13.700;2022-09-03T12:18:33;100414.88;;;28.51;28.49
73860;BME280;62197;51.632;13.700;2022-09-03T12:21:03;100404.69;;;28.07;28.40
73860;BME280;62197;51.632;13.700;2022-09-03T12:25:58;100402.94;;;29.17;26.91
73860;BME280;62197;51.632;13.700;2022-09-03T12:28:28;100400.84;;;29.64;25.70
73860;BME280;62197;51.632;13.700;2022-09-03T12:31:04;100388.44;;;29.22;26.36
73860;BME280;62197;51.632;13.700;2022-09-03T12:33:30;100385.78;;;28.82;26.18
73860;BME280;62197;51.632;13.700;2022-09-03T12:35:58;100407.22;;;29.11;27.31
73860;BME280;62197;51.632;13.700;2022-09-03T12:38:24;100408.97;;;29.31;26.30
73860;BME280;62197;51.632;13.700;2022-09-03T12:40:50;100399.88;;;29.91;26.19
73860;BME280;62197;51.632;13.700;2022-09-03T12:43:17;100392.44;;;29.87;25.97
73860;BME280;62197;51.632;13.700;2022-09-03T12:45:45;100400.56;;;29.19;25.87
73860;BME280;62197;51.632;13.700;2022-09-03T12:48:14;100396.88;;;27.40;28.38
73860;BME280;62197;51.632;13.700;2022-09-03T12:50:41;100394.75;;;28.69;27.40
73860;BME280;62197;51.632;13.700;2022-09-03T12:53:08;100393.09;;;28.12;27.39
73860;BME280;62197;51.632;13.700;2022-09-03T12:55:42;100388.28;;;28.28;27.76
73860;BME280;62197;51.632;13.700;2022-09-03T13:01:15;100390.44;;;29.21;26.34
73860;BME280;62197;51.632;13.700;2022-09-03T13:03:49;100391.66;;;26.29;30.77
73860;BME280;62197;51.632;13.700;2022-09-03T13:06:27;100378.38;;;25.67;31.14
73860;BME280;62197;51.632;13.700;2022-09-03T13:09:01;100372.28;;;26.84;29.80
73860;BME280;62197;51.632;13.700;2022-09-03T13:11:31;100370.03;;;28.14;27.76
73860;BME280;62197;51.632;13.700;2022-09-03T13:14:03;100362.09;;;27.67;28.46
73860;BME280;62197;51.632;13.700;2022-09-03T13:19:47;100379.50;;;27.06;29.65
73860;BME280;62197;51.632;13.700;2022-09-03T13:22:30;100374.34;;;25.19;32.37
73860;BME280;62197;51.632;13.700;2022-09-03T13:30:54;100360.22;;;28.11;27.76
73860;BME280;62197;51.632;13.700;2022-09-03T13:33:33;100374.94;;;27.89;28.26
73860;BME280;62197;51.632;13.700;2022-09-03T13:36:08;100360.63;;;28.25;27.86
73860;BME280;62197;51.632;13.700;2022-09-03T13:43:59;100362.00;;;29.37;25.73
73860;BME280;62197;51.632;13.700;2022-09-03T13:46:37;100358.38;;;27.03;29.62
73860;BME280;62197;51.632;13.700;2022-09-03T13:49:25;100354.25;;;29.18;26.73
73860;BME280;62197;51.632;13.700;2022-09-03T13:52:50;100349.41;;;30.26;24.86
73860;BME280;62197;51.632;13.700;2022-09-03T13:58:01;100350.19;;;30.65;23.80
73860;BME280;62197;51.632;13.700;2022-09-03T14:03:44;100351.25;;;30.80;24.11
73860;BME280;62197;51.632;13.700;2022-09-03T14:06:24;100352.69;;;29.21;26.42
73860;BME280;62197;51.632;13.700;2022-09-03T14:09:10;100340.63;;;28.06;28.18
73860;BME280;62197;51.632;13.700;2022-09-03T14:17:38;100336.72;;;29.32;27.52
73860;BME280;62197;51.632;13.700;2022-09-03T14:25:20;100330.97;;;29.13;26.47
73860;BME280;62197;51.632;13.700;2022-09-03T14:27:46;100328.59;;;29.84;26.16
73860;BME280;62197;51.632;13.700;2022-09-03T14:38:39;100331.41;;;28.25;27.76
73860;BME280;62197;51.632;13.700;2022-09-03T14:44:05;100332.31;;;30.26;25.50
73860;BME280;62197;51.632;13.700;2022-09-03T14:50:08;100326.25;;;27.87;27.88
73860;BME280;62197;51.632;13.700;2022-09-03T14:52:59;100322.69;;;28.61;26.97
73860;BME280;62197;51.632;13.700;2022-09-03T14:55:56;100317.69;;;29.52;26.44
73860;BME280;62197;51.632;13.700;2022-09-03T14:59:04;100312.63;;;30.37;25.88
73860;BME280;62197;51.632;13.700;2022-09-03T15:01:35;100326.38;;;30.54;25.38
73860;BME280;62197;51.632;13.700;2022-09-03T15:04:25;100322.59;;;29.89;26.19
73860;BME280;62197;51.632;13.700;2022-09-03T15:07:16;100325.44;;;28.89;27.95